<?xml version="1.0" encoding="UTF-8" standalone="no" ?>
<gpx xmlns="http://www.topografix.com/GPX/1/1" xmlns:xsi="http://www.w3.org/2001/XMLSchema-instance" xsi:schemaLocation="http://www.topografix.com/GPX/1/1 http://www.topografix.com/GPX/1/1/gpx.xsd" version="1.1" creator="VisuGPX - https://www.visugpx.com">
  <metadata>
    <name>C-14-08-19-sergy-allondon</name>
    <desc><![CDATA[course allondon]]></desc>
  </metadata>
  <trk>
    <name><![CDATA[C-14-08-19-Sergy-allondon]]></name>
    <trkseg>
      <trkpt lat="46.29669" lon="6.0288">
        <ele>554.4</ele>
        <time>2014-08-19T16:07:06Z</time>
      </trkpt>
      <trkpt lat="46.2967" lon="6.02881">
        <ele>554.41</ele>
        <time>2014-08-19T16:07:11Z</time>
      </trkpt>
      <trkpt lat="46.29675" lon="6.02879">
        <ele>554.06</ele>
        <time>2014-08-19T16:07:21Z</time>
      </trkpt>
      <trkpt lat="46.29678" lon="6.02877">
        <ele>554.08</ele>
        <time>2014-08-19T16:07:23Z</time>
      </trkpt>
      <trkpt lat="46.29678" lon="6.02876">
        <ele>553.95</ele>
        <time>2014-08-19T16:07:24Z</time>
      </trkpt>
      <trkpt lat="46.2968" lon="6.02876">
        <ele>553.88</ele>
        <time>2014-08-19T16:07:25Z</time>
      </trkpt>
      <trkpt lat="46.29681" lon="6.02875">
        <ele>553.75</ele>
        <time>2014-08-19T16:07:26Z</time>
      </trkpt>
      <trkpt lat="46.29682" lon="6.02875">
        <ele>553.54</ele>
        <time>2014-08-19T16:07:27Z</time>
      </trkpt>
      <trkpt lat="46.29683" lon="6.02875">
        <ele>553.19</ele>
        <time>2014-08-19T16:07:28Z</time>
      </trkpt>
      <trkpt lat="46.29687" lon="6.02876">
        <ele>552.67</ele>
        <time>2014-08-19T16:07:30Z</time>
      </trkpt>
      <trkpt lat="46.29689" lon="6.02876">
        <ele>552.45</ele>
        <time>2014-08-19T16:07:31Z</time>
      </trkpt>
      <trkpt lat="46.29692" lon="6.02876">
        <ele>551.96</ele>
        <time>2014-08-19T16:07:33Z</time>
      </trkpt>
      <trkpt lat="46.29694" lon="6.02876">
        <ele>551.75</ele>
        <time>2014-08-19T16:07:34Z</time>
      </trkpt>
      <trkpt lat="46.29695" lon="6.02877">
        <ele>551.41</ele>
        <time>2014-08-19T16:07:35Z</time>
      </trkpt>
      <trkpt lat="46.29696" lon="6.02877">
        <ele>550.94</ele>
        <time>2014-08-19T16:07:36Z</time>
      </trkpt>
      <trkpt lat="46.29698" lon="6.02877">
        <ele>550.52</ele>
        <time>2014-08-19T16:07:37Z</time>
      </trkpt>
      <trkpt lat="46.29699" lon="6.02877">
        <ele>550.02</ele>
        <time>2014-08-19T16:07:38Z</time>
      </trkpt>
      <trkpt lat="46.297" lon="6.02876">
        <ele>549.65</ele>
        <time>2014-08-19T16:07:39Z</time>
      </trkpt>
      <trkpt lat="46.29704" lon="6.02876">
        <ele>549.42</ele>
        <time>2014-08-19T16:07:42Z</time>
      </trkpt>
      <trkpt lat="46.29706" lon="6.02876">
        <ele>549.16</ele>
        <time>2014-08-19T16:07:43Z</time>
      </trkpt>
      <trkpt lat="46.29708" lon="6.02876">
        <ele>548.9</ele>
        <time>2014-08-19T16:07:44Z</time>
      </trkpt>
      <trkpt lat="46.29709" lon="6.02876">
        <ele>548.71</ele>
        <time>2014-08-19T16:07:45Z</time>
      </trkpt>
      <trkpt lat="46.29711" lon="6.02876">
        <ele>548.66</ele>
        <time>2014-08-19T16:07:46Z</time>
      </trkpt>
      <trkpt lat="46.29712" lon="6.02877">
        <ele>548.57</ele>
        <time>2014-08-19T16:07:47Z</time>
      </trkpt>
      <trkpt lat="46.29716" lon="6.02879">
        <ele>548.22</ele>
        <time>2014-08-19T16:07:49Z</time>
      </trkpt>
      <trkpt lat="46.29717" lon="6.0288">
        <ele>547.97</ele>
        <time>2014-08-19T16:07:50Z</time>
      </trkpt>
      <trkpt lat="46.29719" lon="6.02882">
        <ele>547.78</ele>
        <time>2014-08-19T16:07:51Z</time>
      </trkpt>
      <trkpt lat="46.29721" lon="6.02882">
        <ele>547.85</ele>
        <time>2014-08-19T16:07:52Z</time>
      </trkpt>
      <trkpt lat="46.29723" lon="6.02883">
        <ele>547.87</ele>
        <time>2014-08-19T16:07:53Z</time>
      </trkpt>
      <trkpt lat="46.29725" lon="6.02884">
        <ele>547.9</ele>
        <time>2014-08-19T16:07:54Z</time>
      </trkpt>
      <trkpt lat="46.29726" lon="6.02885">
        <ele>548.01</ele>
        <time>2014-08-19T16:07:55Z</time>
      </trkpt>
      <trkpt lat="46.29728" lon="6.02886">
        <ele>548.23</ele>
        <time>2014-08-19T16:07:56Z</time>
      </trkpt>
      <trkpt lat="46.2973" lon="6.02888">
        <ele>548.33</ele>
        <time>2014-08-19T16:07:57Z</time>
      </trkpt>
      <trkpt lat="46.29731" lon="6.02889">
        <ele>548.51</ele>
        <time>2014-08-19T16:07:58Z</time>
      </trkpt>
      <trkpt lat="46.29732" lon="6.02891">
        <ele>548.59</ele>
        <time>2014-08-19T16:07:59Z</time>
      </trkpt>
      <trkpt lat="46.29733" lon="6.02892">
        <ele>548.64</ele>
        <time>2014-08-19T16:08:00Z</time>
      </trkpt>
      <trkpt lat="46.29734" lon="6.02894">
        <ele>548.73</ele>
        <time>2014-08-19T16:08:01Z</time>
      </trkpt>
      <trkpt lat="46.29735" lon="6.02895">
        <ele>548.98</ele>
        <time>2014-08-19T16:08:02Z</time>
      </trkpt>
      <trkpt lat="46.29737" lon="6.02895">
        <ele>549.24</ele>
        <time>2014-08-19T16:08:03Z</time>
      </trkpt>
      <trkpt lat="46.29738" lon="6.02894">
        <ele>549.36</ele>
        <time>2014-08-19T16:08:04Z</time>
      </trkpt>
      <trkpt lat="46.29742" lon="6.02897">
        <ele>549.45</ele>
        <time>2014-08-19T16:08:06Z</time>
      </trkpt>
      <trkpt lat="46.29744" lon="6.02897">
        <ele>549.47</ele>
        <time>2014-08-19T16:08:07Z</time>
      </trkpt>
      <trkpt lat="46.29746" lon="6.02896">
        <ele>549.52</ele>
        <time>2014-08-19T16:08:08Z</time>
      </trkpt>
      <trkpt lat="46.29747" lon="6.02895">
        <ele>549.64</ele>
        <time>2014-08-19T16:08:09Z</time>
      </trkpt>
      <trkpt lat="46.29749" lon="6.02895">
        <ele>549.83</ele>
        <time>2014-08-19T16:08:10Z</time>
      </trkpt>
      <trkpt lat="46.29758" lon="6.02895">
        <ele>550.71</ele>
        <time>2014-08-19T16:08:14Z</time>
      </trkpt>
      <trkpt lat="46.29762" lon="6.02893">
        <ele>550.9</ele>
        <time>2014-08-19T16:08:17Z</time>
      </trkpt>
      <trkpt lat="46.29763" lon="6.02892">
        <ele>551.07</ele>
        <time>2014-08-19T16:08:18Z</time>
      </trkpt>
      <trkpt lat="46.29765" lon="6.02891">
        <ele>551.2</ele>
        <time>2014-08-19T16:08:19Z</time>
      </trkpt>
      <trkpt lat="46.29766" lon="6.0289">
        <ele>551.16</ele>
        <time>2014-08-19T16:08:20Z</time>
      </trkpt>
      <trkpt lat="46.29768" lon="6.0289">
        <ele>551.22</ele>
        <time>2014-08-19T16:08:21Z</time>
      </trkpt>
      <trkpt lat="46.2977" lon="6.0289">
        <ele>551.2</ele>
        <time>2014-08-19T16:08:22Z</time>
      </trkpt>
      <trkpt lat="46.29771" lon="6.0289">
        <ele>551.15</ele>
        <time>2014-08-19T16:08:23Z</time>
      </trkpt>
      <trkpt lat="46.29773" lon="6.02889">
        <ele>551.13</ele>
        <time>2014-08-19T16:08:24Z</time>
      </trkpt>
      <trkpt lat="46.29775" lon="6.02888">
        <ele>550.99</ele>
        <time>2014-08-19T16:08:25Z</time>
      </trkpt>
      <trkpt lat="46.29778" lon="6.02887">
        <ele>551.02</ele>
        <time>2014-08-19T16:08:27Z</time>
      </trkpt>
      <trkpt lat="46.2978" lon="6.02886">
        <ele>551.07</ele>
        <time>2014-08-19T16:08:28Z</time>
      </trkpt>
      <trkpt lat="46.29781" lon="6.02886">
        <ele>551.09</ele>
        <time>2014-08-19T16:08:29Z</time>
      </trkpt>
      <trkpt lat="46.29783" lon="6.02884">
        <ele>551.31</ele>
        <time>2014-08-19T16:08:30Z</time>
      </trkpt>
      <trkpt lat="46.29785" lon="6.02883">
        <ele>551.68</ele>
        <time>2014-08-19T16:08:31Z</time>
      </trkpt>
      <trkpt lat="46.29786" lon="6.02883">
        <ele>552.01</ele>
        <time>2014-08-19T16:08:32Z</time>
      </trkpt>
      <trkpt lat="46.29788" lon="6.02883">
        <ele>552.21</ele>
        <time>2014-08-19T16:08:33Z</time>
      </trkpt>
      <trkpt lat="46.2979" lon="6.02883">
        <ele>552.47</ele>
        <time>2014-08-19T16:08:34Z</time>
      </trkpt>
      <trkpt lat="46.29796" lon="6.02879">
        <ele>552.61</ele>
        <time>2014-08-19T16:08:40Z</time>
      </trkpt>
      <trkpt lat="46.29804" lon="6.02872">
        <ele>551.94</ele>
        <time>2014-08-19T16:08:47Z</time>
      </trkpt>
      <trkpt lat="46.29807" lon="6.02871">
        <ele>552.01</ele>
        <time>2014-08-19T16:08:49Z</time>
      </trkpt>
      <trkpt lat="46.29811" lon="6.02869">
        <ele>552.28</ele>
        <time>2014-08-19T16:08:52Z</time>
      </trkpt>
      <trkpt lat="46.29817" lon="6.02868">
        <ele>552.97</ele>
        <time>2014-08-19T16:08:57Z</time>
      </trkpt>
      <trkpt lat="46.29822" lon="6.02868">
        <ele>553.23</ele>
        <time>2014-08-19T16:09:00Z</time>
      </trkpt>
      <trkpt lat="46.2984" lon="6.02872">
        <ele>556.81</ele>
        <time>2014-08-19T16:09:16Z</time>
      </trkpt>
      <trkpt lat="46.29848" lon="6.02877">
        <ele>558.75</ele>
        <time>2014-08-19T16:09:22Z</time>
      </trkpt>
      <trkpt lat="46.29858" lon="6.02879">
        <ele>559.17</ele>
        <time>2014-08-19T16:09:29Z</time>
      </trkpt>
      <trkpt lat="46.29872" lon="6.02876">
        <ele>558.47</ele>
        <time>2014-08-19T16:09:37Z</time>
      </trkpt>
      <trkpt lat="46.29891" lon="6.02872">
        <ele>556.48</ele>
        <time>2014-08-19T16:09:48Z</time>
      </trkpt>
      <trkpt lat="46.29909" lon="6.02865">
        <ele>556.62</ele>
        <time>2014-08-19T16:09:57Z</time>
      </trkpt>
      <trkpt lat="46.29929" lon="6.02865">
        <ele>558.17</ele>
        <time>2014-08-19T16:10:08Z</time>
      </trkpt>
      <trkpt lat="46.29949" lon="6.02854">
        <ele>559.2</ele>
        <time>2014-08-19T16:10:19Z</time>
      </trkpt>
      <trkpt lat="46.29975" lon="6.02842">
        <ele>560.37</ele>
        <time>2014-08-19T16:10:30Z</time>
      </trkpt>
      <trkpt lat="46.29996" lon="6.02826">
        <ele>561</ele>
        <time>2014-08-19T16:10:41Z</time>
      </trkpt>
      <trkpt lat="46.30009" lon="6.02814">
        <ele>562.48</ele>
        <time>2014-08-19T16:10:50Z</time>
      </trkpt>
      <trkpt lat="46.30028" lon="6.02819">
        <ele>563.36</ele>
        <time>2014-08-19T16:11:03Z</time>
      </trkpt>
      <trkpt lat="46.3004" lon="6.02805">
        <ele>564.72</ele>
        <time>2014-08-19T16:11:13Z</time>
      </trkpt>
      <trkpt lat="46.30053" lon="6.02798">
        <ele>565.46</ele>
        <time>2014-08-19T16:11:22Z</time>
      </trkpt>
      <trkpt lat="46.30071" lon="6.028">
        <ele>566.67</ele>
        <time>2014-08-19T16:11:34Z</time>
      </trkpt>
      <trkpt lat="46.30077" lon="6.02788">
        <ele>567.14</ele>
        <time>2014-08-19T16:11:44Z</time>
      </trkpt>
      <trkpt lat="46.30076" lon="6.02771">
        <ele>570.54</ele>
        <time>2014-08-19T16:11:56Z</time>
      </trkpt>
      <trkpt lat="46.30075" lon="6.02766">
        <ele>571.97</ele>
        <time>2014-08-19T16:11:59Z</time>
      </trkpt>
      <trkpt lat="46.30064" lon="6.02742">
        <ele>574.24</ele>
        <time>2014-08-19T16:12:15Z</time>
      </trkpt>
      <trkpt lat="46.30056" lon="6.02729">
        <ele>577.7</ele>
        <time>2014-08-19T16:12:24Z</time>
      </trkpt>
      <trkpt lat="46.30056" lon="6.02721">
        <ele>578.72</ele>
        <time>2014-08-19T16:12:51Z</time>
      </trkpt>
      <trkpt lat="46.30052" lon="6.02724">
        <ele>579.11</ele>
        <time>2014-08-19T16:13:19Z</time>
      </trkpt>
      <trkpt lat="46.30037" lon="6.02724">
        <ele>581.42</ele>
        <time>2014-08-19T16:13:28Z</time>
      </trkpt>
      <trkpt lat="46.30023" lon="6.0272">
        <ele>584.85</ele>
        <time>2014-08-19T16:13:34Z</time>
      </trkpt>
      <trkpt lat="46.29998" lon="6.02708">
        <ele>587.88</ele>
        <time>2014-08-19T16:13:44Z</time>
      </trkpt>
      <trkpt lat="46.29974" lon="6.02712">
        <ele>590.19</ele>
        <time>2014-08-19T16:13:54Z</time>
      </trkpt>
      <trkpt lat="46.29955" lon="6.02709">
        <ele>593.38</ele>
        <time>2014-08-19T16:14:03Z</time>
      </trkpt>
      <trkpt lat="46.2996" lon="6.02694">
        <ele>595.36</ele>
        <time>2014-08-19T16:14:13Z</time>
      </trkpt>
      <trkpt lat="46.29972" lon="6.02677">
        <ele>598.53</ele>
        <time>2014-08-19T16:14:24Z</time>
      </trkpt>
      <trkpt lat="46.29972" lon="6.02658">
        <ele>601.33</ele>
        <time>2014-08-19T16:14:34Z</time>
      </trkpt>
      <trkpt lat="46.29976" lon="6.02633">
        <ele>604.49</ele>
        <time>2014-08-19T16:14:45Z</time>
      </trkpt>
      <trkpt lat="46.29982" lon="6.02604">
        <ele>607.09</ele>
        <time>2014-08-19T16:14:56Z</time>
      </trkpt>
      <trkpt lat="46.29985" lon="6.02585">
        <ele>608.83</ele>
        <time>2014-08-19T16:15:05Z</time>
      </trkpt>
      <trkpt lat="46.29979" lon="6.02572">
        <ele>611.17</ele>
        <time>2014-08-19T16:15:15Z</time>
      </trkpt>
      <trkpt lat="46.29986" lon="6.02571">
        <ele>611.79</ele>
        <time>2014-08-19T16:15:24Z</time>
      </trkpt>
      <trkpt lat="46.30001" lon="6.02567">
        <ele>612.82</ele>
        <time>2014-08-19T16:15:34Z</time>
      </trkpt>
      <trkpt lat="46.30021" lon="6.02562">
        <ele>614.92</ele>
        <time>2014-08-19T16:15:45Z</time>
      </trkpt>
      <trkpt lat="46.30041" lon="6.02551">
        <ele>615.7</ele>
        <time>2014-08-19T16:15:56Z</time>
      </trkpt>
      <trkpt lat="46.30059" lon="6.0254">
        <ele>617.74</ele>
        <time>2014-08-19T16:16:05Z</time>
      </trkpt>
      <trkpt lat="46.30079" lon="6.02524">
        <ele>619.61</ele>
        <time>2014-08-19T16:16:15Z</time>
      </trkpt>
      <trkpt lat="46.301" lon="6.02506">
        <ele>622.09</ele>
        <time>2014-08-19T16:16:29Z</time>
      </trkpt>
      <trkpt lat="46.30121" lon="6.02498">
        <ele>625.22</ele>
        <time>2014-08-19T16:16:38Z</time>
      </trkpt>
      <trkpt lat="46.30138" lon="6.02489">
        <ele>628.3</ele>
        <time>2014-08-19T16:16:47Z</time>
      </trkpt>
      <trkpt lat="46.30158" lon="6.02483">
        <ele>631.03</ele>
        <time>2014-08-19T16:16:59Z</time>
      </trkpt>
      <trkpt lat="46.30173" lon="6.02478">
        <ele>634.16</ele>
        <time>2014-08-19T16:17:09Z</time>
      </trkpt>
      <trkpt lat="46.30194" lon="6.02472">
        <ele>635.14</ele>
        <time>2014-08-19T16:17:19Z</time>
      </trkpt>
      <trkpt lat="46.30186" lon="6.02473">
        <ele>635.52</ele>
        <time>2014-08-19T16:17:28Z</time>
      </trkpt>
      <trkpt lat="46.30174" lon="6.02472">
        <ele>635</ele>
        <time>2014-08-19T16:17:39Z</time>
      </trkpt>
      <trkpt lat="46.3016" lon="6.02458">
        <ele>634.2</ele>
        <time>2014-08-19T16:17:51Z</time>
      </trkpt>
      <trkpt lat="46.30147" lon="6.02448">
        <ele>633.43</ele>
        <time>2014-08-19T16:17:59Z</time>
      </trkpt>
      <trkpt lat="46.30129" lon="6.02438">
        <ele>633.77</ele>
        <time>2014-08-19T16:18:09Z</time>
      </trkpt>
      <trkpt lat="46.30111" lon="6.02429">
        <ele>633.59</ele>
        <time>2014-08-19T16:18:19Z</time>
      </trkpt>
      <trkpt lat="46.30085" lon="6.02406">
        <ele>632.01</ele>
        <time>2014-08-19T16:18:32Z</time>
      </trkpt>
      <trkpt lat="46.30068" lon="6.02396">
        <ele>632.87</ele>
        <time>2014-08-19T16:18:42Z</time>
      </trkpt>
      <trkpt lat="46.30047" lon="6.02391">
        <ele>634.4</ele>
        <time>2014-08-19T16:18:52Z</time>
      </trkpt>
      <trkpt lat="46.30027" lon="6.02383">
        <ele>635</ele>
        <time>2014-08-19T16:19:04Z</time>
      </trkpt>
      <trkpt lat="46.3001" lon="6.0237">
        <ele>635.53</ele>
        <time>2014-08-19T16:19:14Z</time>
      </trkpt>
      <trkpt lat="46.29999" lon="6.02355">
        <ele>636.07</ele>
        <time>2014-08-19T16:19:25Z</time>
      </trkpt>
      <trkpt lat="46.29983" lon="6.02338">
        <ele>636.51</ele>
        <time>2014-08-19T16:19:37Z</time>
      </trkpt>
      <trkpt lat="46.29962" lon="6.02322">
        <ele>636.87</ele>
        <time>2014-08-19T16:19:48Z</time>
      </trkpt>
      <trkpt lat="46.29947" lon="6.02306">
        <ele>638.08</ele>
        <time>2014-08-19T16:19:58Z</time>
      </trkpt>
      <trkpt lat="46.29939" lon="6.02287">
        <ele>639.12</ele>
        <time>2014-08-19T16:20:09Z</time>
      </trkpt>
      <trkpt lat="46.29919" lon="6.02258">
        <ele>642.4</ele>
        <time>2014-08-19T16:20:27Z</time>
      </trkpt>
      <trkpt lat="46.29913" lon="6.02242">
        <ele>645.45</ele>
        <time>2014-08-19T16:20:38Z</time>
      </trkpt>
      <trkpt lat="46.29899" lon="6.02214">
        <ele>648.57</ele>
        <time>2014-08-19T16:20:56Z</time>
      </trkpt>
      <trkpt lat="46.2988" lon="6.02181">
        <ele>651.63</ele>
        <time>2014-08-19T16:21:14Z</time>
      </trkpt>
      <trkpt lat="46.29873" lon="6.02153">
        <ele>654.66</ele>
        <time>2014-08-19T16:21:26Z</time>
      </trkpt>
      <trkpt lat="46.29865" lon="6.02126">
        <ele>656.62</ele>
        <time>2014-08-19T16:21:44Z</time>
      </trkpt>
      <trkpt lat="46.29856" lon="6.02097">
        <ele>659.83</ele>
        <time>2014-08-19T16:22:02Z</time>
      </trkpt>
      <trkpt lat="46.29823" lon="6.02084">
        <ele>658.06</ele>
        <time>2014-08-19T16:22:19Z</time>
      </trkpt>
      <trkpt lat="46.29808" lon="6.02096">
        <ele>655</ele>
        <time>2014-08-19T16:22:30Z</time>
      </trkpt>
      <trkpt lat="46.29799" lon="6.02111">
        <ele>652.41</ele>
        <time>2014-08-19T16:22:39Z</time>
      </trkpt>
      <trkpt lat="46.29796" lon="6.02124">
        <ele>649.31</ele>
        <time>2014-08-19T16:22:48Z</time>
      </trkpt>
      <trkpt lat="46.29794" lon="6.02136">
        <ele>646.71</ele>
        <time>2014-08-19T16:22:57Z</time>
      </trkpt>
      <trkpt lat="46.29781" lon="6.02137">
        <ele>643.6</ele>
        <time>2014-08-19T16:23:11Z</time>
      </trkpt>
      <trkpt lat="46.29769" lon="6.0214">
        <ele>640.39</ele>
        <time>2014-08-19T16:23:21Z</time>
      </trkpt>
      <trkpt lat="46.29756" lon="6.02143">
        <ele>637.32</ele>
        <time>2014-08-19T16:23:29Z</time>
      </trkpt>
      <trkpt lat="46.29747" lon="6.02136">
        <ele>636.19</ele>
        <time>2014-08-19T16:23:40Z</time>
      </trkpt>
      <trkpt lat="46.29743" lon="6.02125">
        <ele>636.49</ele>
        <time>2014-08-19T16:23:48Z</time>
      </trkpt>
      <trkpt lat="46.29722" lon="6.02128">
        <ele>638.07</ele>
        <time>2014-08-19T16:23:58Z</time>
      </trkpt>
      <trkpt lat="46.29702" lon="6.02116">
        <ele>638.58</ele>
        <time>2014-08-19T16:24:08Z</time>
      </trkpt>
      <trkpt lat="46.29686" lon="6.02104">
        <ele>638.62</ele>
        <time>2014-08-19T16:24:18Z</time>
      </trkpt>
      <trkpt lat="46.29665" lon="6.02098">
        <ele>638.76</ele>
        <time>2014-08-19T16:24:28Z</time>
      </trkpt>
      <trkpt lat="46.29645" lon="6.02105">
        <ele>638.9</ele>
        <time>2014-08-19T16:24:38Z</time>
      </trkpt>
      <trkpt lat="46.29621" lon="6.02107">
        <ele>637.77</ele>
        <time>2014-08-19T16:24:48Z</time>
      </trkpt>
      <trkpt lat="46.29599" lon="6.02102">
        <ele>634.57</ele>
        <time>2014-08-19T16:24:59Z</time>
      </trkpt>
      <trkpt lat="46.29575" lon="6.02097">
        <ele>633.15</ele>
        <time>2014-08-19T16:25:11Z</time>
      </trkpt>
      <trkpt lat="46.29555" lon="6.02091">
        <ele>632.89</ele>
        <time>2014-08-19T16:25:22Z</time>
      </trkpt>
      <trkpt lat="46.29533" lon="6.0208">
        <ele>632.23</ele>
        <time>2014-08-19T16:25:33Z</time>
      </trkpt>
      <trkpt lat="46.29514" lon="6.02068">
        <ele>631.29</ele>
        <time>2014-08-19T16:25:43Z</time>
      </trkpt>
      <trkpt lat="46.29492" lon="6.02056">
        <ele>629.57</ele>
        <time>2014-08-19T16:25:53Z</time>
      </trkpt>
      <trkpt lat="46.2947" lon="6.02041">
        <ele>628.98</ele>
        <time>2014-08-19T16:26:03Z</time>
      </trkpt>
      <trkpt lat="46.29448" lon="6.02025">
        <ele>627.16</ele>
        <time>2014-08-19T16:26:14Z</time>
      </trkpt>
      <trkpt lat="46.29418" lon="6.02014">
        <ele>625.44</ele>
        <time>2014-08-19T16:26:24Z</time>
      </trkpt>
      <trkpt lat="46.29399" lon="6.02019">
        <ele>622.25</ele>
        <time>2014-08-19T16:26:34Z</time>
      </trkpt>
      <trkpt lat="46.29382" lon="6.02036">
        <ele>619.42</ele>
        <time>2014-08-19T16:26:45Z</time>
      </trkpt>
      <trkpt lat="46.29363" lon="6.02047">
        <ele>616.39</ele>
        <time>2014-08-19T16:26:55Z</time>
      </trkpt>
      <trkpt lat="46.29337" lon="6.0204">
        <ele>613.82</ele>
        <time>2014-08-19T16:27:07Z</time>
      </trkpt>
      <trkpt lat="46.29317" lon="6.02027">
        <ele>613.44</ele>
        <time>2014-08-19T16:27:18Z</time>
      </trkpt>
      <trkpt lat="46.29299" lon="6.0201">
        <ele>612.8</ele>
        <time>2014-08-19T16:27:28Z</time>
      </trkpt>
      <trkpt lat="46.29283" lon="6.01993">
        <ele>612.86</ele>
        <time>2014-08-19T16:27:38Z</time>
      </trkpt>
      <trkpt lat="46.2926" lon="6.0197">
        <ele>613.45</ele>
        <time>2014-08-19T16:27:51Z</time>
      </trkpt>
      <trkpt lat="46.29237" lon="6.01953">
        <ele>614.36</ele>
        <time>2014-08-19T16:28:02Z</time>
      </trkpt>
      <trkpt lat="46.29209" lon="6.01935">
        <ele>614.19</ele>
        <time>2014-08-19T16:28:15Z</time>
      </trkpt>
      <trkpt lat="46.29184" lon="6.01919">
        <ele>614.9</ele>
        <time>2014-08-19T16:28:26Z</time>
      </trkpt>
      <trkpt lat="46.2916" lon="6.019">
        <ele>615.25</ele>
        <time>2014-08-19T16:28:40Z</time>
      </trkpt>
      <trkpt lat="46.29141" lon="6.01875">
        <ele>614.26</ele>
        <time>2014-08-19T16:28:52Z</time>
      </trkpt>
      <trkpt lat="46.29122" lon="6.01846">
        <ele>613.21</ele>
        <time>2014-08-19T16:29:04Z</time>
      </trkpt>
      <trkpt lat="46.29102" lon="6.01815">
        <ele>613.66</ele>
        <time>2014-08-19T16:29:18Z</time>
      </trkpt>
      <trkpt lat="46.29085" lon="6.0179">
        <ele>615.56</ele>
        <time>2014-08-19T16:29:30Z</time>
      </trkpt>
      <trkpt lat="46.29069" lon="6.01765">
        <ele>616.49</ele>
        <time>2014-08-19T16:29:41Z</time>
      </trkpt>
      <trkpt lat="46.29049" lon="6.01727">
        <ele>614.99</ele>
        <time>2014-08-19T16:29:56Z</time>
      </trkpt>
      <trkpt lat="46.29034" lon="6.01702">
        <ele>614.57</ele>
        <time>2014-08-19T16:30:07Z</time>
      </trkpt>
      <trkpt lat="46.29012" lon="6.01676">
        <ele>614.18</ele>
        <time>2014-08-19T16:30:19Z</time>
      </trkpt>
      <trkpt lat="46.29" lon="6.01658">
        <ele>614.39</ele>
        <time>2014-08-19T16:30:27Z</time>
      </trkpt>
      <trkpt lat="46.28983" lon="6.01627">
        <ele>614.45</ele>
        <time>2014-08-19T16:30:39Z</time>
      </trkpt>
      <trkpt lat="46.28972" lon="6.01605">
        <ele>614.89</ele>
        <time>2014-08-19T16:30:48Z</time>
      </trkpt>
      <trkpt lat="46.2895" lon="6.01581">
        <ele>614.39</ele>
        <time>2014-08-19T16:31:01Z</time>
      </trkpt>
      <trkpt lat="46.28926" lon="6.01563">
        <ele>613.14</ele>
        <time>2014-08-19T16:31:11Z</time>
      </trkpt>
      <trkpt lat="46.28902" lon="6.01541">
        <ele>612.33</ele>
        <time>2014-08-19T16:31:23Z</time>
      </trkpt>
      <trkpt lat="46.28904" lon="6.01521">
        <ele>613.88</ele>
        <time>2014-08-19T16:31:32Z</time>
      </trkpt>
      <trkpt lat="46.28894" lon="6.01491">
        <ele>614.85</ele>
        <time>2014-08-19T16:31:44Z</time>
      </trkpt>
      <trkpt lat="46.28884" lon="6.0147">
        <ele>616.71</ele>
        <time>2014-08-19T16:31:56Z</time>
      </trkpt>
      <trkpt lat="46.2887" lon="6.01444">
        <ele>619.05</ele>
        <time>2014-08-19T16:32:08Z</time>
      </trkpt>
      <trkpt lat="46.2886" lon="6.01421">
        <ele>621.41</ele>
        <time>2014-08-19T16:32:19Z</time>
      </trkpt>
      <trkpt lat="46.28845" lon="6.01389">
        <ele>623.93</ele>
        <time>2014-08-19T16:32:33Z</time>
      </trkpt>
      <trkpt lat="46.28839" lon="6.01359">
        <ele>625.93</ele>
        <time>2014-08-19T16:32:45Z</time>
      </trkpt>
      <trkpt lat="46.28829" lon="6.01331">
        <ele>628.46</ele>
        <time>2014-08-19T16:32:58Z</time>
      </trkpt>
      <trkpt lat="46.28803" lon="6.01316">
        <ele>630.07</ele>
        <time>2014-08-19T16:33:12Z</time>
      </trkpt>
      <trkpt lat="46.28791" lon="6.01283">
        <ele>631.88</ele>
        <time>2014-08-19T16:33:26Z</time>
      </trkpt>
      <trkpt lat="46.28786" lon="6.01257">
        <ele>633.97</ele>
        <time>2014-08-19T16:33:37Z</time>
      </trkpt>
      <trkpt lat="46.28781" lon="6.01228">
        <ele>636.84</ele>
        <time>2014-08-19T16:33:50Z</time>
      </trkpt>
      <trkpt lat="46.28778" lon="6.01204">
        <ele>638.69</ele>
        <time>2014-08-19T16:34:01Z</time>
      </trkpt>
      <trkpt lat="46.28772" lon="6.01183">
        <ele>640.12</ele>
        <time>2014-08-19T16:34:11Z</time>
      </trkpt>
      <trkpt lat="46.28767" lon="6.01158">
        <ele>642.15</ele>
        <time>2014-08-19T16:34:22Z</time>
      </trkpt>
      <trkpt lat="46.28757" lon="6.01139">
        <ele>644.42</ele>
        <time>2014-08-19T16:34:32Z</time>
      </trkpt>
      <trkpt lat="46.28748" lon="6.01118">
        <ele>645.52</ele>
        <time>2014-08-19T16:34:41Z</time>
      </trkpt>
      <trkpt lat="46.28742" lon="6.011">
        <ele>647.02</ele>
        <time>2014-08-19T16:34:50Z</time>
      </trkpt>
      <trkpt lat="46.28733" lon="6.01082">
        <ele>649.16</ele>
        <time>2014-08-19T16:35:01Z</time>
      </trkpt>
      <trkpt lat="46.2872" lon="6.0107">
        <ele>650.75</ele>
        <time>2014-08-19T16:35:12Z</time>
      </trkpt>
      <trkpt lat="46.28696" lon="6.01058">
        <ele>653.21</ele>
        <time>2014-08-19T16:35:24Z</time>
      </trkpt>
      <trkpt lat="46.28676" lon="6.01042">
        <ele>653.94</ele>
        <time>2014-08-19T16:35:36Z</time>
      </trkpt>
      <trkpt lat="46.28655" lon="6.01025">
        <ele>654.55</ele>
        <time>2014-08-19T16:35:47Z</time>
      </trkpt>
      <trkpt lat="46.28626" lon="6.01006">
        <ele>654.35</ele>
        <time>2014-08-19T16:35:59Z</time>
      </trkpt>
      <trkpt lat="46.2861" lon="6.00975">
        <ele>652.28</ele>
        <time>2014-08-19T16:36:11Z</time>
      </trkpt>
      <trkpt lat="46.28584" lon="6.0096">
        <ele>652.55</ele>
        <time>2014-08-19T16:36:24Z</time>
      </trkpt>
      <trkpt lat="46.28558" lon="6.00964">
        <ele>653.69</ele>
        <time>2014-08-19T16:36:38Z</time>
      </trkpt>
      <trkpt lat="46.28536" lon="6.00956">
        <ele>655.45</ele>
        <time>2014-08-19T16:36:48Z</time>
      </trkpt>
      <trkpt lat="46.2852" lon="6.00919">
        <ele>655.58</ele>
        <time>2014-08-19T16:37:02Z</time>
      </trkpt>
      <trkpt lat="46.28511" lon="6.00895">
        <ele>653.51</ele>
        <time>2014-08-19T16:37:12Z</time>
      </trkpt>
      <trkpt lat="46.28481" lon="6.00886">
        <ele>653.54</ele>
        <time>2014-08-19T16:37:25Z</time>
      </trkpt>
      <trkpt lat="46.2845" lon="6.00887">
        <ele>653.79</ele>
        <time>2014-08-19T16:37:38Z</time>
      </trkpt>
      <trkpt lat="46.28429" lon="6.00849">
        <ele>653.54</ele>
        <time>2014-08-19T16:37:52Z</time>
      </trkpt>
      <trkpt lat="46.28417" lon="6.00799">
        <ele>653.29</ele>
        <time>2014-08-19T16:38:08Z</time>
      </trkpt>
      <trkpt lat="46.28418" lon="6.00744">
        <ele>651.42</ele>
        <time>2014-08-19T16:38:24Z</time>
      </trkpt>
      <trkpt lat="46.28411" lon="6.00695">
        <ele>649.49</ele>
        <time>2014-08-19T16:38:39Z</time>
      </trkpt>
      <trkpt lat="46.28401" lon="6.00661">
        <ele>646.43</ele>
        <time>2014-08-19T16:38:51Z</time>
      </trkpt>
      <trkpt lat="46.28378" lon="6.00662">
        <ele>644.41</ele>
        <time>2014-08-19T16:39:02Z</time>
      </trkpt>
      <trkpt lat="46.28336" lon="6.00661">
        <ele>646.43</ele>
        <time>2014-08-19T16:39:20Z</time>
      </trkpt>
      <trkpt lat="46.28305" lon="6.00634">
        <ele>646.92</ele>
        <time>2014-08-19T16:39:35Z</time>
      </trkpt>
      <trkpt lat="46.28265" lon="6.00602">
        <ele>644.85</ele>
        <time>2014-08-19T16:39:54Z</time>
      </trkpt>
      <trkpt lat="46.28225" lon="6.00579">
        <ele>641.98</ele>
        <time>2014-08-19T16:40:12Z</time>
      </trkpt>
      <trkpt lat="46.28194" lon="6.0056">
        <ele>640.59</ele>
        <time>2014-08-19T16:40:26Z</time>
      </trkpt>
      <trkpt lat="46.28166" lon="6.00543">
        <ele>639.92</ele>
        <time>2014-08-19T16:40:39Z</time>
      </trkpt>
      <trkpt lat="46.28142" lon="6.00514">
        <ele>639.06</ele>
        <time>2014-08-19T16:40:52Z</time>
      </trkpt>
      <trkpt lat="46.28112" lon="6.0049">
        <ele>637.47</ele>
        <time>2014-08-19T16:41:05Z</time>
      </trkpt>
      <trkpt lat="46.28099" lon="6.00467">
        <ele>635.22</ele>
        <time>2014-08-19T16:41:14Z</time>
      </trkpt>
      <trkpt lat="46.28098" lon="6.00445">
        <ele>638.31</ele>
        <time>2014-08-19T16:41:23Z</time>
      </trkpt>
      <trkpt lat="46.28092" lon="6.00415">
        <ele>641.2</ele>
        <time>2014-08-19T16:41:36Z</time>
      </trkpt>
      <trkpt lat="46.28076" lon="6.00396">
        <ele>642.81</ele>
        <time>2014-08-19T16:41:47Z</time>
      </trkpt>
      <trkpt lat="46.28056" lon="6.0038">
        <ele>643.39</ele>
        <time>2014-08-19T16:41:57Z</time>
      </trkpt>
      <trkpt lat="46.2804" lon="6.00368">
        <ele>642.39</ele>
        <time>2014-08-19T16:42:06Z</time>
      </trkpt>
      <trkpt lat="46.28017" lon="6.00353">
        <ele>640.79</ele>
        <time>2014-08-19T16:42:20Z</time>
      </trkpt>
      <trkpt lat="46.27996" lon="6.00342">
        <ele>638.18</ele>
        <time>2014-08-19T16:42:32Z</time>
      </trkpt>
      <trkpt lat="46.27973" lon="6.00336">
        <ele>636.37</ele>
        <time>2014-08-19T16:42:44Z</time>
      </trkpt>
      <trkpt lat="46.27955" lon="6.00333">
        <ele>634.58</ele>
        <time>2014-08-19T16:42:55Z</time>
      </trkpt>
      <trkpt lat="46.27933" lon="6.00332">
        <ele>632.06</ele>
        <time>2014-08-19T16:43:06Z</time>
      </trkpt>
      <trkpt lat="46.27905" lon="6.00334">
        <ele>628.92</ele>
        <time>2014-08-19T16:43:18Z</time>
      </trkpt>
      <trkpt lat="46.27883" lon="6.00312">
        <ele>625.74</ele>
        <time>2014-08-19T16:43:28Z</time>
      </trkpt>
      <trkpt lat="46.27858" lon="6.00302">
        <ele>623.51</ele>
        <time>2014-08-19T16:43:41Z</time>
      </trkpt>
      <trkpt lat="46.27837" lon="6.00311">
        <ele>623.24</ele>
        <time>2014-08-19T16:43:52Z</time>
      </trkpt>
      <trkpt lat="46.27807" lon="6.00303">
        <ele>622.32</ele>
        <time>2014-08-19T16:44:04Z</time>
      </trkpt>
      <trkpt lat="46.27781" lon="6.00302">
        <ele>621.76</ele>
        <time>2014-08-19T16:44:16Z</time>
      </trkpt>
      <trkpt lat="46.27753" lon="6.00296">
        <ele>620.19</ele>
        <time>2014-08-19T16:44:28Z</time>
      </trkpt>
      <trkpt lat="46.27727" lon="6.00281">
        <ele>617.79</ele>
        <time>2014-08-19T16:44:40Z</time>
      </trkpt>
      <trkpt lat="46.27703" lon="6.00261">
        <ele>616.84</ele>
        <time>2014-08-19T16:44:52Z</time>
      </trkpt>
      <trkpt lat="46.27679" lon="6.00249">
        <ele>616.46</ele>
        <time>2014-08-19T16:45:03Z</time>
      </trkpt>
      <trkpt lat="46.27657" lon="6.0025">
        <ele>614.25</ele>
        <time>2014-08-19T16:45:14Z</time>
      </trkpt>
      <trkpt lat="46.27631" lon="6.00241">
        <ele>612.04</ele>
        <time>2014-08-19T16:45:26Z</time>
      </trkpt>
      <trkpt lat="46.27607" lon="6.0023">
        <ele>610.48</ele>
        <time>2014-08-19T16:45:36Z</time>
      </trkpt>
      <trkpt lat="46.27587" lon="6.00238">
        <ele>609.41</ele>
        <time>2014-08-19T16:45:45Z</time>
      </trkpt>
      <trkpt lat="46.2756" lon="6.00222">
        <ele>607.64</ele>
        <time>2014-08-19T16:45:57Z</time>
      </trkpt>
      <trkpt lat="46.27537" lon="6.00217">
        <ele>605.62</ele>
        <time>2014-08-19T16:46:10Z</time>
      </trkpt>
      <trkpt lat="46.27522" lon="6.00232">
        <ele>602.38</ele>
        <time>2014-08-19T16:46:20Z</time>
      </trkpt>
      <trkpt lat="46.2751" lon="6.00258">
        <ele>599.22</ele>
        <time>2014-08-19T16:46:30Z</time>
      </trkpt>
      <trkpt lat="46.27509" lon="6.0026">
        <ele>598.92</ele>
        <time>2014-08-19T16:46:31Z</time>
      </trkpt>
      <trkpt lat="46.27495" lon="6.00284">
        <ele>596.56</ele>
        <time>2014-08-19T16:46:43Z</time>
      </trkpt>
      <trkpt lat="46.2748" lon="6.00292">
        <ele>593.38</ele>
        <time>2014-08-19T16:46:51Z</time>
      </trkpt>
      <trkpt lat="46.27471" lon="6.00298">
        <ele>591.66</ele>
        <time>2014-08-19T16:46:55Z</time>
      </trkpt>
      <trkpt lat="46.27454" lon="6.00311">
        <ele>589.05</ele>
        <time>2014-08-19T16:47:05Z</time>
      </trkpt>
      <trkpt lat="46.27427" lon="6.00296">
        <ele>587.21</ele>
        <time>2014-08-19T16:47:16Z</time>
      </trkpt>
      <trkpt lat="46.27406" lon="6.00276">
        <ele>585.6</ele>
        <time>2014-08-19T16:47:27Z</time>
      </trkpt>
      <trkpt lat="46.27377" lon="6.0025">
        <ele>584.53</ele>
        <time>2014-08-19T16:47:42Z</time>
      </trkpt>
      <trkpt lat="46.27353" lon="6.00225">
        <ele>584.43</ele>
        <time>2014-08-19T16:47:54Z</time>
      </trkpt>
      <trkpt lat="46.27329" lon="6.00199">
        <ele>584.98</ele>
        <time>2014-08-19T16:48:07Z</time>
      </trkpt>
      <trkpt lat="46.2731" lon="6.00178">
        <ele>584.09</ele>
        <time>2014-08-19T16:48:18Z</time>
      </trkpt>
      <trkpt lat="46.2729" lon="6.00154">
        <ele>583.71</ele>
        <time>2014-08-19T16:48:29Z</time>
      </trkpt>
      <trkpt lat="46.27271" lon="6.00127">
        <ele>584.97</ele>
        <time>2014-08-19T16:48:41Z</time>
      </trkpt>
      <trkpt lat="46.27249" lon="6.00101">
        <ele>585.64</ele>
        <time>2014-08-19T16:48:52Z</time>
      </trkpt>
      <trkpt lat="46.27226" lon="6.00074">
        <ele>583.79</ele>
        <time>2014-08-19T16:49:03Z</time>
      </trkpt>
      <trkpt lat="46.27208" lon="6.00055">
        <ele>583.26</ele>
        <time>2014-08-19T16:49:13Z</time>
      </trkpt>
      <trkpt lat="46.27199" lon="6.0003">
        <ele>580.38</ele>
        <time>2014-08-19T16:49:24Z</time>
      </trkpt>
      <trkpt lat="46.27189" lon="6.00008">
        <ele>578.26</ele>
        <time>2014-08-19T16:49:34Z</time>
      </trkpt>
      <trkpt lat="46.27171" lon="5.99992">
        <ele>576.32</ele>
        <time>2014-08-19T16:49:44Z</time>
      </trkpt>
      <trkpt lat="46.27152" lon="5.9997">
        <ele>574.48</ele>
        <time>2014-08-19T16:49:55Z</time>
      </trkpt>
      <trkpt lat="46.27136" lon="5.9995">
        <ele>573.93</ele>
        <time>2014-08-19T16:50:05Z</time>
      </trkpt>
      <trkpt lat="46.27121" lon="5.99954">
        <ele>571.76</ele>
        <time>2014-08-19T16:50:15Z</time>
      </trkpt>
      <trkpt lat="46.27109" lon="5.9997">
        <ele>569.35</ele>
        <time>2014-08-19T16:50:26Z</time>
      </trkpt>
      <trkpt lat="46.27084" lon="5.99952">
        <ele>567.02</ele>
        <time>2014-08-19T16:50:39Z</time>
      </trkpt>
      <trkpt lat="46.27063" lon="5.99916">
        <ele>566.82</ele>
        <time>2014-08-19T16:50:54Z</time>
      </trkpt>
      <trkpt lat="46.27048" lon="5.99886">
        <ele>567.67</ele>
        <time>2014-08-19T16:51:06Z</time>
      </trkpt>
      <trkpt lat="46.27043" lon="5.99853">
        <ele>568.46</ele>
        <time>2014-08-19T16:51:19Z</time>
      </trkpt>
      <trkpt lat="46.27033" lon="5.99815">
        <ele>570.98</ele>
        <time>2014-08-19T16:51:34Z</time>
      </trkpt>
      <trkpt lat="46.27028" lon="5.99783">
        <ele>572.5</ele>
        <time>2014-08-19T16:51:46Z</time>
      </trkpt>
      <trkpt lat="46.27017" lon="5.99751">
        <ele>574.06</ele>
        <time>2014-08-19T16:51:57Z</time>
      </trkpt>
      <trkpt lat="46.27014" lon="5.99721">
        <ele>576.03</ele>
        <time>2014-08-19T16:52:09Z</time>
      </trkpt>
      <trkpt lat="46.27018" lon="5.99686">
        <ele>578.1</ele>
        <time>2014-08-19T16:52:22Z</time>
      </trkpt>
      <trkpt lat="46.27016" lon="5.99657">
        <ele>580.24</ele>
        <time>2014-08-19T16:52:33Z</time>
      </trkpt>
      <trkpt lat="46.27014" lon="5.99618">
        <ele>583.23</ele>
        <time>2014-08-19T16:52:47Z</time>
      </trkpt>
      <trkpt lat="46.27015" lon="5.99586">
        <ele>584.34</ele>
        <time>2014-08-19T16:53:00Z</time>
      </trkpt>
      <trkpt lat="46.27014" lon="5.99551">
        <ele>586.38</ele>
        <time>2014-08-19T16:53:12Z</time>
      </trkpt>
      <trkpt lat="46.27015" lon="5.99521">
        <ele>589.21</ele>
        <time>2014-08-19T16:53:25Z</time>
      </trkpt>
      <trkpt lat="46.27011" lon="5.99489">
        <ele>591.86</ele>
        <time>2014-08-19T16:53:37Z</time>
      </trkpt>
      <trkpt lat="46.2699" lon="5.99466">
        <ele>592.05</ele>
        <time>2014-08-19T16:53:48Z</time>
      </trkpt>
      <trkpt lat="46.26971" lon="5.99442">
        <ele>591.82</ele>
        <time>2014-08-19T16:54:00Z</time>
      </trkpt>
      <trkpt lat="46.26953" lon="5.99431">
        <ele>590.65</ele>
        <time>2014-08-19T16:54:10Z</time>
      </trkpt>
      <trkpt lat="46.26926" lon="5.99422">
        <ele>589.78</ele>
        <time>2014-08-19T16:54:22Z</time>
      </trkpt>
      <trkpt lat="46.26905" lon="5.99422">
        <ele>589.02</ele>
        <time>2014-08-19T16:54:31Z</time>
      </trkpt>
      <trkpt lat="46.2688" lon="5.99411">
        <ele>588.42</ele>
        <time>2014-08-19T16:54:42Z</time>
      </trkpt>
      <trkpt lat="46.26861" lon="5.99417">
        <ele>587.89</ele>
        <time>2014-08-19T16:54:52Z</time>
      </trkpt>
      <trkpt lat="46.2684" lon="5.9944">
        <ele>584.81</ele>
        <time>2014-08-19T16:55:04Z</time>
      </trkpt>
      <trkpt lat="46.26833" lon="5.99458">
        <ele>581.69</ele>
        <time>2014-08-19T16:55:13Z</time>
      </trkpt>
      <trkpt lat="46.26818" lon="5.9948">
        <ele>578.96</ele>
        <time>2014-08-19T16:55:25Z</time>
      </trkpt>
      <trkpt lat="46.26802" lon="5.99481">
        <ele>576.83</ele>
        <time>2014-08-19T16:55:34Z</time>
      </trkpt>
      <trkpt lat="46.26784" lon="5.99467">
        <ele>576.29</ele>
        <time>2014-08-19T16:55:43Z</time>
      </trkpt>
      <trkpt lat="46.26755" lon="5.99458">
        <ele>574.32</ele>
        <time>2014-08-19T16:55:56Z</time>
      </trkpt>
      <trkpt lat="46.2673" lon="5.99453">
        <ele>574.5</ele>
        <time>2014-08-19T16:56:07Z</time>
      </trkpt>
      <trkpt lat="46.26707" lon="5.9945">
        <ele>575.71</ele>
        <time>2014-08-19T16:56:18Z</time>
      </trkpt>
      <trkpt lat="46.26683" lon="5.99445">
        <ele>574.82</ele>
        <time>2014-08-19T16:56:28Z</time>
      </trkpt>
      <trkpt lat="46.26657" lon="5.99435">
        <ele>574.52</ele>
        <time>2014-08-19T16:56:40Z</time>
      </trkpt>
      <trkpt lat="46.26631" lon="5.99426">
        <ele>573.84</ele>
        <time>2014-08-19T16:56:51Z</time>
      </trkpt>
      <trkpt lat="46.26612" lon="5.99413">
        <ele>573.28</ele>
        <time>2014-08-19T16:57:00Z</time>
      </trkpt>
      <trkpt lat="46.26586" lon="5.99409">
        <ele>573</ele>
        <time>2014-08-19T16:57:10Z</time>
      </trkpt>
      <trkpt lat="46.26561" lon="5.99403">
        <ele>570.59</ele>
        <time>2014-08-19T16:57:19Z</time>
      </trkpt>
      <trkpt lat="46.2654" lon="5.99392">
        <ele>571.11</ele>
        <time>2014-08-19T16:57:27Z</time>
      </trkpt>
      <trkpt lat="46.26509" lon="5.99376">
        <ele>570.15</ele>
        <time>2014-08-19T16:57:38Z</time>
      </trkpt>
      <trkpt lat="46.2648" lon="5.99353">
        <ele>568.25</ele>
        <time>2014-08-19T16:57:50Z</time>
      </trkpt>
      <trkpt lat="46.26455" lon="5.99335">
        <ele>567.46</ele>
        <time>2014-08-19T16:58:02Z</time>
      </trkpt>
      <trkpt lat="46.26428" lon="5.9932">
        <ele>565.24</ele>
        <time>2014-08-19T16:58:13Z</time>
      </trkpt>
      <trkpt lat="46.2639" lon="5.99298">
        <ele>562.01</ele>
        <time>2014-08-19T16:58:25Z</time>
      </trkpt>
      <trkpt lat="46.26361" lon="5.99282">
        <ele>559.54</ele>
        <time>2014-08-19T16:58:36Z</time>
      </trkpt>
      <trkpt lat="46.26336" lon="5.99271">
        <ele>556.56</ele>
        <time>2014-08-19T16:58:47Z</time>
      </trkpt>
      <trkpt lat="46.26318" lon="5.99263">
        <ele>553.72</ele>
        <time>2014-08-19T16:58:56Z</time>
      </trkpt>
      <trkpt lat="46.26291" lon="5.9925">
        <ele>550.46</ele>
        <time>2014-08-19T16:59:07Z</time>
      </trkpt>
      <trkpt lat="46.26265" lon="5.99232">
        <ele>547.82</ele>
        <time>2014-08-19T16:59:18Z</time>
      </trkpt>
      <trkpt lat="46.2626" lon="5.99225">
        <ele>546.53</ele>
        <time>2014-08-19T16:59:21Z</time>
      </trkpt>
      <trkpt lat="46.26232" lon="5.99199">
        <ele>544.49</ele>
        <time>2014-08-19T16:59:33Z</time>
      </trkpt>
      <trkpt lat="46.26202" lon="5.99188">
        <ele>542.07</ele>
        <time>2014-08-19T16:59:44Z</time>
      </trkpt>
      <trkpt lat="46.26173" lon="5.992">
        <ele>539.78</ele>
        <time>2014-08-19T16:59:55Z</time>
      </trkpt>
      <trkpt lat="46.26142" lon="5.99185">
        <ele>536.9</ele>
        <time>2014-08-19T17:00:06Z</time>
      </trkpt>
      <trkpt lat="46.26138" lon="5.99179">
        <ele>536.16</ele>
        <time>2014-08-19T17:00:08Z</time>
      </trkpt>
      <trkpt lat="46.26106" lon="5.99143">
        <ele>535.46</ele>
        <time>2014-08-19T17:00:21Z</time>
      </trkpt>
      <trkpt lat="46.26081" lon="5.99108">
        <ele>535.45</ele>
        <time>2014-08-19T17:00:34Z</time>
      </trkpt>
      <trkpt lat="46.26063" lon="5.99084">
        <ele>535.5</ele>
        <time>2014-08-19T17:00:43Z</time>
      </trkpt>
      <trkpt lat="46.2604" lon="5.99056">
        <ele>533.94</ele>
        <time>2014-08-19T17:00:54Z</time>
      </trkpt>
      <trkpt lat="46.26013" lon="5.99032">
        <ele>534.13</ele>
        <time>2014-08-19T17:01:05Z</time>
      </trkpt>
      <trkpt lat="46.25976" lon="5.99016">
        <ele>533.21</ele>
        <time>2014-08-19T17:01:18Z</time>
      </trkpt>
      <trkpt lat="46.25928" lon="5.99012">
        <ele>530.07</ele>
        <time>2014-08-19T17:01:34Z</time>
      </trkpt>
      <trkpt lat="46.25904" lon="5.98991">
        <ele>528.49</ele>
        <time>2014-08-19T17:01:47Z</time>
      </trkpt>
      <trkpt lat="46.25904" lon="5.98969">
        <ele>529.31</ele>
        <time>2014-08-19T17:01:58Z</time>
      </trkpt>
    </trkseg>
  </trk>
</gpx>